Terminal Aerodrome Forecast
Issued by NWS

Home | Current Version | Previous Version | Text Only | Print | Product List | Glossary On
Versions: 1 2 3 4 5 6 7 8 9 10 11 12 13 14 15 16 17 18 19
002
FTUS43 KMPX 010523
TAFAXN
TAF
KAXN 010523Z 0106/0206 04016KT P6SM -SHRA OVC040
     FM010900 03014G20KT 2SM -SN BR OVC010
     FM011500 02016G21KT 2SM -SN BR OVC006
     FM011900 35015G20KT 5SM -RASN BR OVC014
     FM020300 35014KT P6SM OVC035=

USA.gov is the U.S. government's official web portal to all federal, state and local government web resources and services.